Time;durP1;ratioP1;P1;durP2;ratioP2;P2;SDS_P1;SDS_P2;PMS_P1;PMS_P2;Temp;Humidity;BMP_temperature;BMP_pressure;BME280_temperature;BME280_humidity;BME280_pressure;Samples;Min_cycle;Max_cycle;Signal;HPM_P1;HPM_P2
2021/10/01 00:01:10;;;;;;;1.10;1.00;;;8.80;99.90;;;;;;5023482;28;20301;-83
2021/10/01 00:03:36;;;;;;;1.73;1.40;;;8.80;99.90;;;;;;5023448;28;20203;-83
2021/10/01 00:06:02;;;;;;;2.43;1.30;;;8.80;99.90;;;;;;5038887;28;20545;-83
2021/10/01 00:08:27;;;;;;;1.77;1.10;;;8.80;99.90;;;;;;5023667;28;20263;-82
2021/10/01 00:10:53;;;;;;;1.60;1.20;;;8.60;99.90;;;;;;5023294;28;20205;-83
2021/10/01 00:13:19;;;;;;;2.80;1.30;;;8.60;99.90;;;;;;5023129;28;20268;-82
2021/10/01 00:15:45;;;;;;;3.53;1.60;;;8.60;99.90;;;;;;5039825;28;20180;-81
2021/10/01 00:18:11;;;;;;;2.77;1.30;;;8.70;99.90;;;;;;5038763;28;20302;-82
2021/10/01 00:20:37;;;;;;;2.53;1.40;;;8.70;99.90;;;;;;5038667;28;20191;-82
2021/10/01 00:23:03;;;;;;;3.83;1.20;;;8.50;99.90;;;;;;5039611;28;20748;-82
2021/10/01 00:25:29;;;;;;;3.63;1.50;;;8.70;99.90;;;;;;5041548;28;20169;-82
2021/10/01 00:27:55;;;;;;;1.73;1.23;;;8.50;99.90;;;;;;5042441;28;20233;-83
2021/10/01 00:30:20;;;;;;;1.93;1.50;;;8.60;99.90;;;;;;5041019;28;20680;-82
2021/10/01 00:32:48;;;;;;;2.03;1.23;;;8.50;99.90;;;;;;5021372;28;20688;-82
2021/10/01 00:35:14;;;;;;;1.37;1.20;;;8.50;99.90;;;;;;5023289;28;20196;-82
2021/10/01 00:37:39;;;;;;;1.40;1.20;;;8.50;99.90;;;;;;5039801;28;20551;-80
2021/10/01 00:40:06;;;;;;;1.40;1.30;;;8.40;99.90;;;;;;5039932;28;20215;-82
2021/10/01 00:42:31;;;;;;;2.17;1.37;;;8.40;99.90;;;;;;5051382;28;20200;-82
2021/10/01 00:44:57;;;;;;;1.23;1.13;;;8.30;99.90;;;;;;5043507;28;20179;-81
2021/10/01 00:47:23;;;;;;;2.30;1.10;;;8.40;99.90;;;;;;5039517;28;20173;-82
2021/10/01 00:49:49;;;;;;;3.17;1.40;;;8.30;99.90;;;;;;5022282;28;20183;-82
2021/10/01 00:52:18;;;;;;;2.07;1.20;;;8.20;99.90;;;;;;5040176;28;20191;-82
2021/10/01 00:54:43;;;;;;;2.67;1.50;;;8.20;99.90;;;;;;5041002;28;20187;-82
2021/10/01 00:57:10;;;;;;;1.87;1.37;;;8.30;99.90;;;;;;5022919;28;20220;-81
2021/10/01 00:59:35;;;;;;;4.77;1.30;;;8.30;99.90;;;;;;5039960;28;20181;-82
2021/10/01 01:02:01;;;;;;;2.33;1.20;;;8.30;99.90;;;;;;5039481;28;20187;-82
2021/10/01 01:04:27;;;;;;;1.50;1.17;;;8.30;99.90;;;;;;5028572;28;20175;-82
2021/10/01 01:07:12;;;;;;;1.23;1.07;;;8.40;99.90;;;;;;5047383;28;20179;-82
2021/10/01 01:10:06;;;;;;;1.80;1.40;;;8.30;99.90;;;;;;5045924;28;20258;-82
2021/10/01 01:12:54;;;;;;;4.33;1.23;;;8.30;99.90;;;;;;5019396;28;20276;-82
2021/10/01 01:15:28;;;;;;;3.60;1.33;;;8.30;99.90;;;;;;5044490;28;20178;-82
2021/10/01 01:18:04;;;;;;;1.50;1.20;;;8.30;99.90;;;;;;5044319;28;20178;-83
2021/10/01 01:20:42;;;;;;;1.50;1.17;;;8.20;99.90;;;;;;5044594;28;20235;-82
2021/10/01 01:23:35;;;;;;;2.37;1.50;;;8.20;99.90;;;;;;5043863;28;20202;-82
2021/10/01 01:26:28;;;;;;;1.33;1.10;;;8.20;99.90;;;;;;5026683;28;20180;-82
2021/10/01 01:29:09;;;;;;;1.80;1.10;;;8.20;99.90;;;;;;5043587;28;20202;-82
2021/10/01 01:31:44;;;;;;;1.20;1.10;;;8.20;99.90;;;;;;5046403;28;20172;-82
2021/10/01 01:34:17;;;;;;;3.00;1.23;;;8.10;99.90;;;;;;5037375;28;20288;-81
2021/10/01 01:36:45;;;;;;;2.50;1.40;;;8.10;99.90;;;;;;5025287;28;20183;-82
2021/10/01 01:39:12;;;;;;;1.60;1.20;;;8.10;99.90;;;;;;5038077;28;20176;-82
2021/10/01 01:41:39;;;;;;;2.30;1.07;;;8.10;99.90;;;;;;5042660;28;20195;-82
2021/10/01 01:44:06;;;;;;;1.63;1.10;;;7.80;99.90;;;;;;5021839;28;20199;-82
2021/10/01 01:46:32;;;;;;;1.10;1.00;;;7.80;99.90;;;;;;5024686;28;20175;-82
2021/10/01 01:48:59;;;;;;;1.77;1.20;;;7.90;99.90;;;;;;5042483;28;20178;-82
2021/10/01 01:51:25;;;;;;;3.77;1.53;;;7.80;99.90;;;;;;5042918;28;20175;-82
2021/10/01 01:53:52;;;;;;;1.93;1.33;;;7.80;99.90;;;;;;5024296;28;20206;-81
2021/10/01 01:56:19;;;;;;;2.97;1.13;;;7.70;99.90;;;;;;5041675;28;20602;-81
2021/10/01 01:58:46;;;;;;;1.77;1.27;;;7.80;99.90;;;;;;5024415;28;20644;-81
2021/10/01 02:01:15;;;;;;;3.50;1.10;;;7.80;99.90;;;;;;5041698;28;20200;-81
2021/10/01 02:03:42;;;;;;;1.43;1.23;;;7.80;99.90;;;;;;5043072;28;20211;-81
2021/10/01 02:06:09;;;;;;;1.40;0.90;;;7.80;99.90;;;;;;5041439;28;20201;-82
2021/10/01 02:08:36;;;;;;;1.60;1.10;;;7.90;99.90;;;;;;5041324;28;20624;-82
2021/10/01 02:11:02;;;;;;;3.87;1.20;;;7.90;99.90;;;;;;5024053;28;20190;-82
2021/10/01 02:13:29;;;;;;;2.90;1.30;;;7.90;99.90;;;;;;5041369;28;20202;-82
2021/10/01 02:15:56;;;;;;;2.67;1.10;;;7.90;99.90;;;;;;5023518;28;20650;-81
2021/10/01 02:18:25;;;;;;;1.67;1.20;;;7.80;99.90;;;;;;5041620;28;20175;-82
2021/10/01 02:20:55;;;;;;;1.80;1.20;;;7.90;99.90;;;;;;5038786;28;20200;-81
2021/10/01 02:23:22;;;;;;;1.47;0.90;;;7.90;99.90;;;;;;5018478;28;20206;-82
2021/10/01 02:28:40;;;;;;;1.30;0.80;;;7.80;99.90;;;;;;5038561;28;20186;-82
2021/10/01 02:31:16;;;;;;;1.43;1.00;;;7.90;99.90;;;;;;5026960;28;20560;-82
2021/10/01 02:33:44;;;;;;;1.43;1.20;;;7.60;99.90;;;;;;5020167;28;20202;-82
2021/10/01 02:36:11;;;;;;;3.67;1.40;;;7.60;99.90;;;;;;5021436;28;20277;-81
2021/10/01 02:38:37;;;;;;;1.07;0.97;;;7.70;99.90;;;;;;5017602;28;20627;-82
2021/10/01 02:41:03;;;;;;;2.40;1.60;;;7.70;99.90;;;;;;5019338;28;20200;-82
2021/10/01 02:43:29;;;;;;;2.23;1.13;;;7.60;99.90;;;;;;5026834;28;20209;-82
2021/10/01 02:45:55;;;;;;;2.17;1.10;;;7.60;99.90;;;;;;5006551;28;20226;-82
2021/10/01 02:48:21;;;;;;;1.60;1.10;;;7.60;99.90;;;;;;5028166;28;21996;-82
2021/10/01 02:50:51;;;;;;;0.90;0.80;;;7.60;99.90;;;;;;5024164;28;20190;-82
2021/10/01 02:53:27;;;;;;;2.57;1.20;;;7.60;99.90;;;;;;5022927;28;20199;-81
2021/10/01 02:56:09;;;;;;;1.30;1.00;;;7.60;99.90;;;;;;5003744;28;20179;-82
2021/10/01 02:58:38;;;;;;;1.10;1.00;;;7.60;99.90;;;;;;5025364;28;20772;-82
2021/10/01 03:01:06;;;;;;;1.03;0.97;;;7.60;99.90;;;;;;5019684;28;20201;-82
2021/10/01 03:03:45;;;;;;;2.83;1.20;;;7.50;99.90;;;;;;5022708;28;20674;-81
2021/10/01 03:06:13;;;;;;;2.70;1.20;;;7.50;99.90;;;;;;5021870;28;20191;-82
2021/10/01 03:08:40;;;;;;;1.00;0.90;;;7.40;99.90;;;;;;5021900;28;20669;-82
2021/10/01 03:11:10;;;;;;;1.10;0.83;;;7.40;99.90;;;;;;5025553;28;20223;-82
2021/10/01 03:13:39;;;;;;;1.63;1.20;;;7.40;99.90;;;;;;5026715;28;20307;-82
2021/10/01 03:16:06;;;;;;;2.00;1.20;;;7.40;99.90;;;;;;5025205;28;20175;-81
2021/10/01 03:18:33;;;;;;;2.23;1.30;;;7.40;99.90;;;;;;5020153;28;20195;-82
2021/10/01 03:21:05;;;;;;;1.37;1.27;;;7.40;99.90;;;;;;5040092;28;20195;-82
2021/10/01 03:23:30;;;;;;;1.33;1.20;;;7.40;99.90;;;;;;5022318;28;20232;-82
2021/10/01 03:25:56;;;;;;;1.47;1.17;;;7.40;99.90;;;;;;5049289;28;20225;-82
2021/10/01 03:28:22;;;;;;;1.50;1.20;;;7.40;99.90;;;;;;5045684;28;20175;-82
2021/10/01 03:30:48;;;;;;;1.70;1.20;;;7.40;99.90;;;;;;5041899;28;20186;-82
2021/10/01 03:33:15;;;;;;;2.83;1.20;;;7.40;99.90;;;;;;5019572;28;20200;-82
2021/10/01 03:35:43;;;;;;;1.83;1.30;;;7.40;99.90;;;;;;5023822;28;20175;-82
2021/10/01 03:38:12;;;;;;;2.43;1.20;;;7.40;99.90;;;;;;5024308;28;20325;-82
2021/10/01 03:40:48;;;;;;;0.97;0.93;;;7.40;99.90;;;;;;5021283;28;20238;-82
2021/10/01 03:43:14;;;;;;;1.73;1.20;;;7.30;99.90;;;;;;5016964;28;20205;-82
2021/10/01 03:45:40;;;;;;;1.23;1.13;;;7.30;99.90;;;;;;5042256;28;20253;-82
2021/10/01 03:48:06;;;;;;;2.10;1.00;;;7.30;99.90;;;;;;5040703;28;20249;-82
2021/10/01 03:50:33;;;;;;;2.03;1.37;;;7.30;99.90;;;;;;5041747;28;20260;-82
2021/10/01 03:53:00;;;;;;;1.30;1.20;;;7.30;99.90;;;;;;5022635;28;20202;-82
2021/10/01 03:55:26;;;;;;;3.00;1.10;;;7.20;99.90;;;;;;5024263;28;20189;-82
2021/10/01 03:57:52;;;;;;;1.40;1.20;;;7.20;99.90;;;;;;5023299;28;20194;-82
2021/10/01 04:00:19;;;;;;;1.90;1.20;;;7.20;99.90;;;;;;5039118;28;20265;-82
2021/10/01 04:02:44;;;;;;;1.80;1.13;;;7.20;99.90;;;;;;5017985;28;20216;-82
2021/10/01 04:05:11;;;;;;;3.10;1.23;;;7.20;99.90;;;;;;5035026;28;20223;-82
2021/10/01 04:07:37;;;;;;;1.77;1.10;;;7.20;99.90;;;;;;5021678;28;20314;-82
2021/10/01 04:10:04;;;;;;;2.67;1.30;;;7.10;99.90;;;;;;5039217;28;20171;-82
2021/10/01 04:12:30;;;;;;;2.33;1.30;;;7.10;99.90;;;;;;5040410;28;20198;-82
2021/10/01 04:14:55;;;;;;;2.37;1.07;;;7.20;99.90;;;;;;5040126;28;20698;-82
2021/10/01 04:17:21;;;;;;;1.20;1.10;;;7.20;99.90;;;;;;5040092;28;20186;-82
2021/10/01 04:19:47;;;;;;;1.77;1.30;;;7.10;99.90;;;;;;5040243;28;20186;-82
2021/10/01 04:22:12;;;;;;;2.87;1.20;;;7.10;99.90;;;;;;5040845;28;20594;-82
2021/10/01 04:24:38;;;;;;;2.40;1.47;;;7.10;99.90;;;;;;5040770;28;20202;-82
2021/10/01 04:27:04;;;;;;;1.20;1.10;;;7.10;99.90;;;;;;5040976;28;20180;-81
2021/10/01 04:29:30;;;;;;;2.50;1.23;;;7.20;99.90;;;;;;5041648;28;20657;-81
2021/10/01 04:31:55;;;;;;;2.47;1.47;;;7.10;99.90;;;;;;5041299;28;20174;-81
2021/10/01 04:34:21;;;;;;;1.57;1.10;;;7.10;99.90;;;;;;5041728;28;20552;-81
2021/10/01 04:36:47;;;;;;;1.23;1.13;;;7.10;99.90;;;;;;5041633;28;20186;-81
2021/10/01 04:39:13;;;;;;;1.67;1.20;;;7.20;99.90;;;;;;5043802;28;20209;-81
2021/10/01 04:41:41;;;;;;;1.77;1.07;;;7.10;99.90;;;;;;5023491;28;20286;-81
2021/10/01 04:44:08;;;;;;;2.30;1.57;;;7.00;99.90;;;;;;5022228;28;20192;-81
2021/10/01 04:46:35;;;;;;;1.50;1.23;;;7.10;99.90;;;;;;5040052;28;20167;-82
2021/10/01 04:49:01;;;;;;;1.47;1.20;;;7.10;99.90;;;;;;5049624;28;20517;-81
2021/10/01 04:51:27;;;;;;;1.27;0.90;;;6.90;99.90;;;;;;5029584;28;20203;-81
2021/10/01 04:53:53;;;;;;;2.37;1.50;;;7.00;99.90;;;;;;5039554;28;20237;-80
2021/10/01 04:56:18;;;;;;;2.10;1.40;;;6.90;99.90;;;;;;5015334;28;20698;-82
2021/10/01 04:58:44;;;;;;;4.03;2.23;;;6.90;99.90;;;;;;5005176;28;20190;-81
2021/10/01 05:01:10;;;;;;;2.43;1.70;;;6.90;99.90;;;;;;5018854;28;20198;-81
2021/10/01 05:03:35;;;;;;;3.77;1.70;;;6.90;99.90;;;;;;5034393;28;20580;-81
2021/10/01 05:06:01;;;;;;;4.40;1.90;;;6.90;99.90;;;;;;5003230;28;20317;-81
2021/10/01 05:08:26;;;;;;;2.30;1.17;;;6.90;99.90;;;;;;5010197;28;20182;-82
2021/10/01 05:10:52;;;;;;;2.37;1.33;;;6.90;99.90;;;;;;5039223;28;20193;-82
2021/10/01 05:13:18;;;;;;;3.73;1.60;;;6.80;99.90;;;;;;5039814;28;20253;-82
2021/10/01 05:15:43;;;;;;;2.23;1.30;;;6.80;99.90;;;;;;5039780;28;20210;-80
2021/10/01 05:18:13;;;;;;;3.03;1.70;;;6.80;99.90;;;;;;5039721;28;20262;-82
2021/10/01 05:20:39;;;;;;;1.87;1.47;;;6.80;99.90;;;;;;5021441;28;20657;-82
2021/10/01 05:23:05;;;;;;;2.83;1.50;;;6.80;99.90;;;;;;5022084;28;20199;-82
2021/10/01 05:25:30;;;;;;;2.50;1.10;;;6.80;99.90;;;;;;5039820;28;20265;-82
2021/10/01 05:27:56;;;;;;;1.63;1.20;;;6.80;99.90;;;;;;5022474;28;20197;-82
2021/10/01 05:30:22;;;;;;;2.37;1.50;;;6.80;99.90;;;;;;5021981;28;20163;-82
2021/10/01 05:32:48;;;;;;;4.10;1.63;;;6.80;99.90;;;;;;5035038;28;20198;-82
2021/10/01 05:35:14;;;;;;;2.23;1.63;;;6.80;99.90;;;;;;5042110;28;20173;-82
2021/10/01 05:37:40;;;;;;;2.23;1.73;;;6.90;99.90;;;;;;5039967;28;20182;-81
2021/10/01 05:40:07;;;;;;;2.67;1.80;;;6.80;99.90;;;;;;5040078;28;20252;-82
2021/10/01 05:42:33;;;;;;;3.93;1.63;;;6.80;99.90;;;;;;5021703;28;20198;-82
2021/10/01 05:44:59;;;;;;;4.20;1.80;;;6.80;99.90;;;;;;5021667;28;20181;-82
2021/10/01 05:47:27;;;;;;;1.93;1.50;;;6.90;99.90;;;;;;5023237;28;20235;-82
2021/10/01 05:49:53;;;;;;;1.93;1.70;;;6.80;99.90;;;;;;5023249;28;20178;-82
2021/10/01 05:52:49;;;;;;;3.07;1.93;;;6.90;99.90;;;;;;5038973;28;20195;-82
2021/10/01 05:55:05;;;;;;;3.83;1.70;;;7.00;99.90;;;;;;5035800;28;20170;-82
2021/10/01 05:57:30;;;;;;;2.93;1.50;;;6.90;99.90;;;;;;5038537;28;20172;-82
2021/10/01 05:59:56;;;;;;;3.17;2.47;;;6.90;99.90;;;;;;5009259;28;20167;-82
2021/10/01 06:02:22;;;;;;;2.10;1.30;;;6.90;99.90;;;;;;5006592;28;20299;-82
2021/10/01 06:04:52;;;;;;;4.27;1.97;;;7.00;99.90;;;;;;5021983;28;20212;-81
2021/10/01 06:07:19;;;;;;;5.00;2.40;;;7.00;99.90;;;;;;5021872;28;20181;-82
2021/10/01 06:09:45;;;;;;;2.27;1.93;;;6.90;99.90;;;;;;5039131;28;20168;-81
2021/10/01 06:12:12;;;;;;;5.30;2.23;;;7.00;99.90;;;;;;5020833;28;20194;-81
2021/10/01 06:14:38;;;;;;;4.27;1.77;;;7.00;99.90;;;;;;5038602;28;20172;-81
2021/10/01 06:17:05;;;;;;;5.57;2.30;;;7.10;99.90;;;;;;5020526;28;20634;-81
2021/10/01 06:19:35;;;;;;;4.37;2.60;;;7.10;99.90;;;;;;5040203;28;20171;-81
2021/10/01 06:22:03;;;;;;;2.97;1.97;;;7.10;99.90;;;;;;5041973;28;20194;-82
2021/10/01 06:24:28;;;;;;;5.93;2.30;;;7.10;99.90;;;;;;5041564;28;20175;-81
2021/10/01 06:26:54;;;;;;;5.40;2.60;;;7.10;99.90;;;;;;5023801;28;20524;-81
2021/10/01 06:29:20;;;;;;;7.53;2.87;;;7.20;99.90;;;;;;5042786;28;20688;-81
2021/10/01 06:31:46;;;;;;;8.33;2.80;;;7.20;99.90;;;;;;5041307;28;20253;-81
2021/10/01 06:34:12;;;;;;;5.03;3.10;;;7.00;99.90;;;;;;5041463;28;20208;-81
2021/10/01 06:36:39;;;;;;;9.07;2.67;;;7.10;99.90;;;;;;5023940;28;20266;-81
2021/10/01 06:39:07;;;;;;;4.37;2.87;;;7.20;99.90;;;;;;5035501;28;20175;-80
2021/10/01 06:41:34;;;;;;;6.57;2.97;;;7.20;99.90;;;;;;5034861;28;20191;-82
2021/10/01 06:44:03;;;;;;;5.57;2.80;;;7.20;99.90;;;;;;5048566;28;20277;-82
2021/10/01 06:51:36;;;;;;;5.37;2.47;;;7.50;99.90;;;;;;5044464;28;20182;-82
2021/10/01 07:29:18;;;;;;;3.50;2.00;;;8.40;99.90;;;;;;5043858;28;20205;-81
2021/10/01 07:34:48;;;;;;;4.47;1.70;;;8.40;99.90;;;;;;5039540;28;20713;-82
2021/10/01 07:35:38;;;;;;;2.53;2.07;;;8.50;99.90;;;;;;5044275;28;20186;-82
2021/10/01 08:21:13;;;;;;;7.33;4.40;;;9.40;99.90;;;;;;5041574;28;20185;-81
2021/10/01 08:23:41;;;;;;;6.00;4.57;;;9.50;99.90;;;;;;5029426;28;20196;-78
2021/10/01 08:26:07;;;;;;;4.67;4.23;;;9.70;99.90;;;;;;5020182;28;20192;-80
2021/10/01 08:28:32;;;;;;;7.90;5.20;;;9.90;99.90;;;;;;5017585;28;20185;-78
2021/10/01 08:30:58;;;;;;;7.40;4.70;;;10.10;99.90;;;;;;5012375;28;20653;-78
2021/10/01 08:33:24;;;;;;;10.63;5.63;;;10.20;99.90;;;;;;5016594;28;20339;-79
2021/10/01 08:35:49;;;;;;;5.33;4.60;;;10.30;99.90;;;;;;5019200;28;20247;-78
2021/10/01 08:38:15;;;;;;;6.07;5.30;;;10.50;99.90;;;;;;5019801;28;20192;-78
2021/10/01 08:40:41;;;;;;;7.60;6.10;;;10.50;99.90;;;;;;5038379;28;20232;-78
2021/10/01 08:43:07;;;;;;;9.93;5.93;;;10.50;99.90;;;;;;5046558;28;20192;-81
2021/10/01 08:45:34;;;;;;;7.60;5.50;;;10.60;99.90;;;;;;5051562;28;20178;-81
2021/10/01 08:48:02;;;;;;;11.97;6.57;;;10.70;99.90;;;;;;5039617;28;20170;-80
2021/10/01 08:50:29;;;;;;;11.97;7.50;;;10.80;99.90;;;;;;5041544;28;20189;-81
2021/10/01 08:52:59;;;;;;;8.30;6.57;;;10.80;99.90;;;;;;5045336;28;20212;-80
2021/10/01 08:55:26;;;;;;;11.00;7.77;;;10.90;99.90;;;;;;5030729;28;20186;-81
2021/10/01 08:57:52;;;;;;;13.67;8.03;;;10.90;99.90;;;;;;5040924;28;20564;-80
2021/10/01 09:00:19;;;;;;;9.50;7.30;;;11.00;99.90;;;;;;5029187;28;20209;-80
2021/10/01 09:02:45;;;;;;;9.13;6.40;;;11.20;99.90;;;;;;5040580;28;20630;-80
2021/10/01 09:05:12;;;;;;;9.07;6.27;;;11.30;99.90;;;;;;5042144;28;20235;-80
2021/10/01 09:07:38;;;;;;;12.10;6.30;;;11.40;99.90;;;;;;5027670;28;20180;-81
2021/10/01 09:10:10;;;;;;;10.07;6.07;;;11.50;99.90;;;;;;5025267;28;20184;-80
2021/10/01 09:12:35;;;;;;;9.90;5.60;;;11.60;99.90;;;;;;5040081;28;20178;-80
2021/10/01 09:15:02;;;;;;;10.63;6.00;;;11.60;99.90;;;;;;5039277;28;20216;-80
2021/10/01 09:17:30;;;;;;;8.20;6.53;;;11.70;99.90;;;;;;5035674;28;20181;-80
2021/10/01 09:19:57;;;;;;;7.83;5.47;;;11.80;99.90;;;;;;5037707;28;20186;-80
2021/10/01 09:22:38;;;;;;;7.70;5.13;;;11.90;99.90;;;;;;5023624;28;20183;-80
2021/10/01 09:25:24;;;;;;;6.40;5.23;;;12.00;99.90;;;;;;5040827;28;20191;-81
2021/10/01 09:27:58;;;;;;;8.23;5.20;;;12.00;99.90;;;;;;5020841;28;20200;-80
2021/10/01 09:30:24;;;;;;;5.43;4.10;;;12.00;99.90;;;;;;5014855;28;20233;-80
2021/10/01 09:33:22;;;;;;;4.50;3.73;;;12.20;99.90;;;;;;5018108;28;20679;-79
2021/10/01 09:35:48;;;;;;;6.03;4.40;;;12.30;99.90;;;;;;5004009;28;20229;-80
2021/10/01 09:38:16;;;;;;;6.43;4.30;;;12.40;99.90;;;;;;5039884;28;20178;-80
2021/10/01 09:40:44;;;;;;;4.97;4.33;;;12.50;99.90;;;;;;5039353;28;20226;-79
2021/10/01 09:43:30;;;;;;;7.13;4.60;;;12.60;99.90;;;;;;5036771;28;20217;-80
2021/10/01 09:46:13;;;;;;;4.63;3.60;;;12.60;99.90;;;;;;5040366;28;20655;-81
2021/10/01 09:48:40;;;;;;;4.23;3.83;;;12.80;99.90;;;;;;5037755;28;20174;-80
2021/10/01 09:51:18;;;;;;;4.93;3.90;;;13.00;99.90;;;;;;5040033;28;20190;-80
2021/10/01 09:53:49;;;;;;;4.27;3.33;;;13.00;99.90;;;;;;5043510;28;20378;-80
2021/10/01 09:56:31;;;;;;;4.47;4.07;;;13.10;99.90;;;;;;5043202;28;20679;-81
2021/10/01 09:59:19;;;;;;;5.23;3.60;;;13.20;99.90;;;;;;5045700;28;20213;-81
2021/10/01 10:02:10;;;;;;;4.00;3.50;;;13.20;99.90;;;;;;5045883;28;20261;-79
2021/10/01 10:04:45;;;;;;;3.50;3.20;;;13.40;99.90;;;;;;5044358;28;20209;-79
2021/10/01 10:07:21;;;;;;;5.13;3.40;;;13.50;99.90;;;;;;5040003;28;20197;-79
2021/10/01 10:10:16;;;;;;;3.30;2.87;;;13.70;99.90;;;;;;5021791;28;20174;-79
2021/10/01 10:12:44;;;;;;;3.80;3.30;;;13.80;99.90;;;;;;5027718;28;20681;-79
2021/10/01 10:15:16;;;;;;;4.83;2.93;;;13.90;99.90;;;;;;5022801;28;20214;-79
2021/10/01 10:17:50;;;;;;;3.70;2.80;;;13.90;99.90;;;;;;5025887;28;20206;-80
2021/10/01 10:20:18;;;;;;;4.27;3.10;;;14.00;99.90;;;;;;5044785;28;20206;-79
2021/10/01 10:22:44;;;;;;;17.27;3.50;;;14.00;99.90;;;;;;5044879;28;20199;-80
2021/10/01 10:25:10;;;;;;;4.47;3.03;;;14.10;99.90;;;;;;5044357;28;20188;-80
2021/10/01 10:27:37;;;;;;;7.80;2.93;;;14.30;99.90;;;;;;5027955;28;20178;-80
2021/10/01 10:30:06;;;;;;;5.07;2.80;;;14.40;99.90;;;;;;5027618;28;20178;-81
2021/10/01 10:32:32;;;;;;;3.37;3.07;;;14.50;99.90;;;;;;5027409;28;20171;-80
2021/10/01 10:35:03;;;;;;;4.07;3.10;;;14.70;99.90;;;;;;5046169;28;20633;-79
2021/10/01 10:37:41;;;;;;;5.07;2.70;;;14.90;99.90;;;;;;5044938;28;20202;-80
2021/10/01 10:40:16;;;;;;;4.10;2.57;;;15.00;99.90;;;;;;5043602;28;20181;-80
2021/10/01 10:42:44;;;;;;;5.67;2.70;;;15.10;99.90;;;;;;5033222;28;20256;-80
2021/10/01 10:45:14;;;;;;;3.17;2.50;;;;;;;;;;5023263;28;20174;-79
2021/10/01 10:47:47;;;;;;;3.43;2.70;;;15.20;99.90;;;;;;5020537;28;20313;-79
2021/10/01 10:50:25;;;;;;;3.00;2.60;;;15.30;99.90;;;;;;5014807;28;20259;-81
2021/10/01 10:53:11;;;;;;;5.07;3.00;;;15.20;99.90;;;;;;5019224;28;20234;-80
2021/10/01 10:55:42;;;;;;;4.07;2.70;;;15.40;99.90;;;;;;5025206;28;20178;-81
2021/10/01 10:58:23;;;;;;;5.33;2.60;;;15.40;99.90;;;;;;5044020;28;20183;-81
2021/10/01 11:00:56;;;;;;;5.50;2.57;;;15.60;99.90;;;;;;5037217;28;20206;-80
2021/10/01 11:03:30;;;;;;;4.87;3.00;;;;;;;;;;5038859;28;20221;-80
2021/10/01 11:06:13;;;;;;;4.37;2.80;;;15.90;99.90;;;;;;5044817;28;20176;-80
2021/10/01 11:08:44;;;;;;;4.43;2.70;;;16.10;99.90;;;;;;5038434;28;20171;-80
2021/10/01 11:11:28;;;;;;;4.47;3.20;;;16.30;99.90;;;;;;5048513;28;20184;-81
2021/10/01 11:14:17;;;;;;;3.83;2.63;;;16.20;99.90;;;;;;5038812;28;20204;-81
2021/10/01 11:17:03;;;;;;;5.20;2.57;;;16.40;99.90;;;;;;5017070;28;20190;-81
2021/10/01 11:19:36;;;;;;;3.50;2.40;;;16.50;99.90;;;;;;5015677;28;20197;-82
2021/10/01 11:22:24;;;;;;;4.43;2.60;;;16.70;99.90;;;;;;5027014;28;20223;-82
2021/10/01 11:24:59;;;;;;;3.27;2.33;;;16.50;99.90;;;;;;5043094;28;20176;-82
2021/10/01 11:27:25;;;;;;;4.37;2.27;;;16.60;99.90;;;;;;5048246;28;20206;-81
2021/10/01 11:29:50;;;;;;;3.63;2.00;;;16.80;99.90;;;;;;5039785;28;20263;-80
2021/10/01 11:32:22;;;;;;;6.30;2.93;;;17.00;99.90;;;;;;5042133;28;20191;-81
2021/10/01 11:34:54;;;;;;;3.10;2.10;;;16.90;99.90;;;;;;5026093;28;20188;-81
2021/10/01 11:37:34;;;;;;;5.87;2.40;;;17.00;99.90;;;;;;5044414;28;20210;-81
2021/10/01 11:40:04;;;;;;;4.93;1.90;;;16.90;99.90;;;;;;5039904;28;20291;-80
2021/10/01 11:42:34;;;;;;;4.37;2.50;;;17.10;99.90;;;;;;5042664;28;20194;-81
2021/10/01 11:45:13;;;;;;;2.47;2.27;;;17.30;99.90;;;;;;5016424;28;20185;-82
2021/10/01 11:47:48;;;;;;;3.20;1.90;;;17.60;99.90;;;;;;5041861;28;20193;-80
2021/10/01 11:50:13;;;;;;;5.93;2.27;;;17.60;99.90;;;;;;5038770;28;20185;-79
2021/10/01 11:52:45;;;;;;;3.03;2.40;;;17.40;99.90;;;;;;5030330;28;20639;-80
2021/10/01 11:55:12;;;;;;;3.00;1.83;;;17.50;99.90;;;;;;5048979;28;20187;-80
2021/10/01 11:57:44;;;;;;;2.10;1.70;;;17.60;99.90;;;;;;5035950;28;20211;-82
2021/10/01 12:00:17;;;;;;;4.50;2.13;;;17.60;99.90;;;;;;5019710;28;20207;-81
2021/10/01 12:02:47;;;;;;;4.57;2.07;;;17.50;99.90;;;;;;5017472;28;20339;-81
2021/10/01 12:05:32;;;;;;;4.23;1.87;;;17.50;99.90;;;;;;5024472;28;20622;-81
2021/10/01 12:08:02;;;;;;;4.57;1.97;;;17.70;99.90;;;;;;5009751;28;20185;-81
2021/10/01 12:10:48;;;;;;;2.23;1.97;;;17.90;99.90;;;;;;5025686;28;20193;-81
2021/10/01 12:13:22;;;;;;;3.50;2.10;;;18.10;99.90;;;;;;5038949;28;20664;-81
2021/10/01 12:15:54;;;;;;;5.07;2.03;;;18.20;99.90;;;;;;5021536;28;20186;-81
2021/10/01 12:18:42;;;;;;;2.80;1.70;;;18.10;99.90;;;;;;5040585;28;20220;-82
2021/10/01 12:21:14;;;;;;;3.07;1.70;;;18.30;99.90;;;;;;5023147;28;20204;-83
2021/10/01 12:23:44;;;;;;;2.20;1.10;;;18.20;99.90;;;;;;5040987;28;20197;-82
2021/10/01 12:26:23;;;;;;;1.87;1.37;;;18.30;99.90;;;;;;5042037;28;20190;-82
2021/10/01 12:29:21;;;;;;;4.20;1.80;;;18.30;99.90;;;;;;5023382;28;20194;-82
2021/10/01 12:31:50;;;;;;;4.33;1.93;;;;;;;;;;5041029;28;20187;-82
2021/10/01 12:34:21;;;;;;;3.80;1.73;;;18.50;99.90;;;;;;5040929;28;20209;-82
2021/10/01 12:36:53;;;;;;;1.93;1.47;;;18.50;99.90;;;;;;5023488;28;20178;-82
2021/10/01 12:39:22;;;;;;;3.77;1.67;;;18.40;99.90;;;;;;5025467;28;20193;-82
2021/10/01 12:42:03;;;;;;;4.37;1.57;;;18.50;99.90;;;;;;5023922;28;20194;-82
2021/10/01 12:44:32;;;;;;;3.43;1.20;;;18.50;99.90;;;;;;5040887;28;20202;-82
2021/10/01 12:47:20;;;;;;;2.60;1.40;;;18.50;99.90;;;;;;5023513;28;20323;-82
2021/10/01 12:50:00;;;;;;;2.67;1.40;;;18.50;99.90;;;;;;5041435;28;20170;-82
2021/10/01 12:52:27;;;;;;;4.17;1.67;;;18.60;99.90;;;;;;5010342;28;20528;-82
2021/10/01 12:55:20;;;;;;;3.77;1.60;;;18.60;99.90;;;;;;5040575;28;20179;-82
2021/10/01 12:57:48;;;;;;;3.73;2.17;;;18.80;99.90;;;;;;5035904;28;20227;-82
2021/10/01 13:00:22;;;;;;;4.20;1.30;;;18.80;99.90;;;;;;5040421;28;20224;-83
2021/10/01 13:03:08;;;;;;;2.37;1.80;;;18.90;99.90;;;;;;5023263;28;20244;-83
2021/10/01 13:05:33;;;;;;;3.13;1.60;;;18.90;99.90;;;;;;5022022;28;20552;-82
2021/10/01 13:08:00;;;;;;;7.67;3.20;;;18.90;99.90;;;;;;5022305;28;20170;-82
2021/10/01 13:10:38;;;;;;;2.63;1.70;;;18.90;99.90;;;;;;5040061;28;20656;-82
2021/10/01 13:13:11;;;;;;;1.53;1.00;;;18.90;99.90;;;;;;5039997;28;20201;-82
2021/10/01 13:16:05;;;;;;;1.70;1.37;;;19.00;99.90;;;;;;5040271;28;20202;-82
2021/10/01 13:18:31;;;;;;;3.17;1.23;;;19.00;99.90;;;;;;5038085;28;20201;-82
2021/10/01 13:21:02;;;;;;;2.63;1.40;;;18.90;99.90;;;;;;5039705;28;20193;-82
2021/10/01 13:23:39;;;;;;;2.93;1.80;;;19.00;99.90;;;;;;5040142;28;20201;-82
2021/10/01 13:26:18;;;;;;;3.03;1.60;;;19.00;99.90;;;;;;5022186;28;20181;-82
2021/10/01 13:28:47;;;;;;;3.23;1.70;;;18.90;99.90;;;;;;5039575;28;20170;-82
2021/10/01 13:31:14;;;;;;;3.90;1.90;;;19.00;99.90;;;;;;5038815;28;20249;-83
2021/10/01 13:33:40;;;;;;;3.80;2.17;;;19.00;99.90;;;;;;5015526;28;20195;-82
2021/10/01 13:36:05;;;;;;;2.63;1.70;;;18.90;99.90;;;;;;5031794;28;20269;-82
2021/10/01 13:38:41;;;;;;;3.53;2.13;;;18.80;99.90;;;;;;5021627;28;20178;-82
2021/10/01 13:41:09;;;;;;;4.63;2.83;;;18.80;99.90;;;;;;5039268;28;20320;-82
2021/10/01 13:43:36;;;;;;;2.97;1.93;;;18.80;99.90;;;;;;5039034;28;20735;-82
2021/10/01 13:46:04;;;;;;;4.10;2.17;;;18.60;99.90;;;;;;5020631;28;20317;-82
2021/10/01 13:48:29;;;;;;;2.13;1.67;;;18.70;99.90;;;;;;5039581;28;20701;-82
2021/10/01 13:50:55;;;;;;;3.93;1.80;;;18.70;99.90;;;;;;5019592;28;20191;-83
2021/10/01 13:53:23;;;;;;;2.50;1.53;;;18.80;99.90;;;;;;5033139;28;20198;-83
2021/10/01 13:55:49;;;;;;;3.77;1.70;;;18.80;99.90;;;;;;5038299;28;20174;-82
2021/10/01 13:58:15;;;;;;;2.60;2.10;;;18.80;99.90;;;;;;5035926;28;20178;-82
2021/10/01 14:00:41;;;;;;;3.23;1.80;;;18.80;99.90;;;;;;5033194;28;20190;-82
2021/10/01 14:05:45;;;;;;;3.43;1.93;;;18.80;99.90;;;;;;5054620;28;20218;-83
2021/10/01 14:08:11;;;;;;;4.77;1.60;;;18.80;99.90;;;;;;5053873;28;20592;-83
2021/10/01 14:10:36;;;;;;;3.83;1.60;;;18.80;99.90;;;;;;5056708;28;20184;-83
2021/10/01 14:13:05;;;;;;;3.00;1.60;;;18.90;99.90;;;;;;5058635;28;20189;-83
2021/10/01 14:15:31;;;;;;;3.80;2.33;;;18.80;99.90;;;;;;5059026;28;20197;-83
2021/10/01 14:17:57;;;;;;;3.03;1.83;;;18.90;99.90;;;;;;5060994;28;20181;-83
2021/10/01 14:20:26;;;;;;;4.97;2.10;;;19.00;99.90;;;;;;5060617;28;20289;-83
2021/10/01 14:22:52;;;;;;;3.73;2.13;;;19.00;99.90;;;;;;5059643;28;20197;-83
2021/10/01 14:25:20;;;;;;;3.67;1.50;;;19.00;99.90;;;;;;5059921;28;20186;-83
2021/10/01 14:27:46;;;;;;;2.43;1.80;;;19.00;99.90;;;;;;5059835;28;20208;-83
2021/10/01 14:30:14;;;;;;;4.47;2.00;;;19.00;99.90;;;;;;5059468;28;20169;-83
2021/10/01 14:32:41;;;;;;;4.00;2.20;;;19.00;99.90;;;;;;5059071;28;20178;-83
2021/10/01 14:35:08;;;;;;;3.10;1.93;;;19.00;99.90;;;;;;5059664;28;20648;-83
2021/10/01 14:37:34;;;;;;;3.10;1.60;;;19.00;99.90;;;;;;5059907;28;20200;-83